Barhom II — 5IM534 — position and weather

sailwx.info

Track history (hours):
 
Tides and Currents Weather Stations Pressure Air Temp Water Temp Dewpoint Dewpoint Depression Visibility Wind Speed Wind Dir Waves Ship Positions

Barhom II

Last reported at 2015-Apr-27 02:24 UTC. Time now 2015-Apr-27 22:15 UTC.
Position N 38°31' E 003°23'.

Length 83 m; draft 4.7 m.

Type: Cargo ship. MMSI: 677043400.

Date/timePositionNaut miles runAvg speedWind from/ knotsBaromVisibWave heightAir tempDewpointWater temp
2015-Apr-27 02:24N 38°31' E 003°23'8 9.0
2015-Apr-27 01:32N 38°38' E 003°25'9 9.4
2015-Apr-27 00:33N 38°48' E 003°27'10 9.4
2015-Apr-26 23:31N 38°57' E 003°30'11 9.4
2015-Apr-26 22:21N 39°08' E 003°32'1113.7
2015-Apr-26 21:33N 39°19' E 003°33'7 6.9
2015-Apr-26 20:32N 39°26' E 003°35'11 9.9
2015-Apr-26 19:27N 39°36' E 003°35'1512.7
2015-Apr-26 18:17N 39°51' E 003°37'4 5.9
2015-Apr-26 17:33N 39°56' E 003°37'1410.4
2015-Apr-26 16:12N 40°10' E 003°39'812.0
2015-Apr-26 15:33N 40°17' E 003°40'13 9.4
2015-Apr-26 14:11N 40°30' E 003°41'1213.3
2015-Apr-26 13:17N 40°42' E 003°42'5 6.6
2015-Apr-26 12:29N 40°47' E 003°42'1010.2
2015-Apr-26 11:29N 40°57' E 003°43'1010.4
2015-Apr-26 10:33N 41°07' E 003°44'1111.1
2015-Apr-26 09:33N 41°18' E 003°45'1110.0
2015-Apr-26 08:26N 41°29' E 003°45'1110.2
2015-Apr-26 07:19N 41°41' E 003°46'8710.5
2015-Apr-25 23:06N 43°07' E 003°44'17 8.5
2015-Apr-25 21:07N 43°24' E 003°42'0 0.0
2015-Apr-25 19:14N 43°24' E 003°42'0 0.0
2015-Apr-25 18:33N 43°24' E 003°42'0 0.0
2015-Apr-25 17:04N 43°24' E 003°42'0 0.1
2015-Apr-25 16:28N 43°24' E 003°42'0 0.0
2015-Apr-25 15:20N 43°24' E 003°42'0 0.0
2015-Apr-25 14:25N 43°24' E 003°42'0 0.1
2015-Apr-25 13:10N 43°24' E 003°42'3 5.3
2015-Apr-25 12:31N 43°21' E 003°44'1010.5
2015-Apr-25 11:32N 43°10' E 003°42'1110.8
2015-Apr-25 10:33N 42°60' E 003°40'1211.2
2015-Apr-25 09:29N 42°48' E 003°37'1010.3
2015-Apr-25 08:32N 42°39' E 003°34'1110.8
2015-Apr-25 07:31N 42°28' E 003°31'1611.1
2015-Apr-25 06:04N 42°12' E 003°27'3110.4
2015-Apr-25 03:07N 41°44' E 003°11'3810.5
2015-Apr-24 23:33N 41°14' E 002°40'1010.2
2015-Apr-24 22:33N 41°06' E 002°32'1010.0
2015-Apr-24 21:33N 40°58' E 002°25'1010.1
2015-Apr-24 20:33N 40°49' E 002°18'1010.5
2015-Apr-24 19:33N 40°41' E 002°10'1110.6
2015-Apr-24 18:33N 40°32' E 002°02'1110.8
2015-Apr-24 17:33N 40°23' E 001°55'1110.8
2015-Apr-24 16:33N 40°13' E 001°48'1110.7
2015-Apr-24 15:33N 40°04' E 001°41'1110.6
2015-Apr-24 14:33N 39°54' E 001°35'1110.6
2015-Apr-24 13:33N 39°45' E 001°28'2510.8
2015-Apr-24 11:14N 39°23' E 001°13'6510.9
2015-Apr-24 05:17N 38°24' E 000°39'811.2
2015-Apr-24 04:33N 38°16' E 000°36'1111.1
2015-Apr-24 03:33N 38°06' E 000°31'2411.1
2015-Apr-24 01:21N 37°43' E 000°20'1011.0
2015-Apr-24 00:24N 37°33' E 000°15'1011.3
2015-Apr-23 23:33N 37°24' E 000°11'1111.0
2015-Apr-23 22:33N 37°14' E 000°06'1110.8
2015-Apr-23 21:33N 37°03' E 000°01'1110.7
2015-Apr-23 20:33N 36°54' W 000°03'  
2015-Apr-20 20:33N 35°46' W 000°37'11 9.8
2015-Apr-20 19:26N 35°56' W 000°33'10 9.2
2015-Apr-20 18:22N 36°05' W 000°28'5010.1
2015-Apr-20 13:26N 36°52' W 000°07'910.7
2015-Apr-20 12:33N 37°01' W 000°03'1110.6
2015-Apr-20 11:33N 37°11' E 000°02'1110.7
2015-Apr-20 10:33N 37°21' E 000°07'1010.4
2015-Apr-20 09:33N 37°30' E 000°11'2410.3
2015-Apr-20 07:13N 37°53' E 000°23'710.2
2015-Apr-20 06:33N 37°59' E 000°26'1110.3
2015-Apr-20 05:32N 38°09' E 000°31'1010.0
2015-Apr-20 04:30N 38°18' E 000°36'5510.4
2015-Apr-19 23:12N 39°10' E 000°59'7 9.9
2015-Apr-19 22:32N 39°16' E 001°02'10 9.9
2015-Apr-19 21:33N 39°25' E 001°07'20 9.8
2015-Apr-19 19:34N 39°42' E 001°19'10 9.7
2015-Apr-19 18:33N 39°51' E 001°25'10 9.7
2015-Apr-19 17:34N 39°60' E 001°31'10 9.9
2015-Apr-19 16:33N 40°09' E 001°37'1010.2
2015-Apr-19 15:33N 40°18' E 001°43'1010.2
2015-Apr-19 14:33N 40°26' E 001°50'1010.1
2015-Apr-19 13:33N 40°35' E 001°57'1010.0
2015-Apr-19 12:33N 40°43' E 002°04'1010.2
2015-Apr-19 11:33N 40°52' E 002°11'1010.4
2015-Apr-19 10:33N 41°01' E 002°18'1110.5
2015-Apr-19 09:33N 41°10' E 002°26'1110.7
2015-Apr-19 08:33N 41°17' E 002°36'1210.9
2015-Apr-19 07:30N 41°25' E 002°47'2310.5
2015-Apr-19 05:18N 41°41' E 003°10'7010.0
2015-Apr-18 22:21N 42°47' E 003°36'10 9.9
2015-Apr-18 21:20N 42°57' E 003°38'1110.2
2015-Apr-18 20:14N 43°08' E 003°41'910.4
2015-Apr-18 19:22N 43°17' E 003°43'7 7.7
2015-Apr-18 18:30N 43°24' E 003°42'0 0.3
2015-Apr-18 17:28N 43°24' E 003°42'0 0.0
2015-Apr-18 16:33N 43°24' E 003°42'0 0.0
2015-Apr-18 14:19N 43°24' E 003°42'0 0.0
2015-Apr-18 13:24N 43°24' E 003°42'0 0.0
2015-Apr-18 12:30N 43°24' E 003°42'0 0.0
2015-Apr-18 11:25N 43°24' E 003°42'0 0.6
2015-Apr-18 10:33N 43°24' E 003°43'11 8.7
2015-Apr-18 09:20N 43°14' E 003°48'1110.7
2015-Apr-18 08:20N 43°04' E 003°52'1011.2
2015-Apr-18 07:24N 42°54' E 003°56'1310.0
2015-Apr-18 06:06N 42°41' E 004°01'54 9.6
2015-Apr-18 00:26N 41°51' E 004°30'19 9.9
2015-Apr-17 22:33N 41°34' E 004°41'1110.4
2015-Apr-17 21:30N 41°25' E 004°49'9 9.8
2015-Apr-17 20:33N 41°18' E 004°56'1210.6
2015-Apr-17 19:23N 41°08' E 005°07'8 9.5
2015-Apr-17 18:32N 41°02' E 005°14'  
Track history (hours):
 
Tides and Currents Weather Stations Pressure Air Temp Water Temp Dewpoint Dewpoint Depression Visibility Wind Speed Wind Dir Waves Ship Positions

Barhom II

Last reported at 2015-Apr-27 02:24 UTC. Time now 2015-Apr-27 22:15 UTC.
Position N 38°31' E 003°23'.

Length 83 m; draft 4.7 m.

Type: Cargo ship. MMSI: 677043400.

Date/timePositionNaut miles runAvg speedWind from/ knotsBaromVisibWave heightAir tempDewpointWater temp
2015-Apr-27 02:24N 38°31' E 003°23'8 9.0
2015-Apr-27 01:32N 38°38' E 003°25'9 9.4
2015-Apr-27 00:33N 38°48' E 003°27'10 9.4
2015-Apr-26 23:31N 38°57' E 003°30'11 9.4
2015-Apr-26 22:21N 39°08' E 003°32'1113.7
2015-Apr-26 21:33N 39°19' E 003°33'7 6.9
2015-Apr-26 20:32N 39°26' E 003°35'11 9.9
2015-Apr-26 19:27N 39°36' E 003°35'1512.7
2015-Apr-26 18:17N 39°51' E 003°37'4 5.9
2015-Apr-26 17:33N 39°56' E 003°37'1410.4
2015-Apr-26 16:12N 40°10' E 003°39'812.0
2015-Apr-26 15:33N 40°17' E 003°40'13 9.4
2015-Apr-26 14:11N 40°30' E 003°41'1213.3
2015-Apr-26 13:17N 40°42' E 003°42'5 6.6
2015-Apr-26 12:29N 40°47' E 003°42'1010.2
2015-Apr-26 11:29N 40°57' E 003°43'1010.4
2015-Apr-26 10:33N 41°07' E 003°44'1111.1
2015-Apr-26 09:33N 41°18' E 003°45'1110.0
2015-Apr-26 08:26N 41°29' E 003°45'1110.2
2015-Apr-26 07:19N 41°41' E 003°46'8710.5
2015-Apr-25 23:06N 43°07' E 003°44'17 8.5
2015-Apr-25 21:07N 43°24' E 003°42'0 0.0
2015-Apr-25 19:14N 43°24' E 003°42'0 0.0
2015-Apr-25 18:33N 43°24' E 003°42'0 0.0
2015-Apr-25 17:04N 43°24' E 003°42'0 0.1
2015-Apr-25 16:28N 43°24' E 003°42'0 0.0
2015-Apr-25 15:20N 43°24' E 003°42'0 0.0
2015-Apr-25 14:25N 43°24' E 003°42'0 0.1
2015-Apr-25 13:10N 43°24' E 003°42'3 5.3
2015-Apr-25 12:31N 43°21' E 003°44'1010.5
2015-Apr-25 11:32N 43°10' E 003°42'1110.8
2015-Apr-25 10:33N 42°60' E 003°40'1211.2
2015-Apr-25 09:29N 42°48' E 003°37'1010.3
2015-Apr-25 08:32N 42°39' E 003°34'1110.8
2015-Apr-25 07:31N 42°28' E 003°31'1611.1
2015-Apr-25 06:04N 42°12' E 003°27'3110.4
2015-Apr-25 03:07N 41°44' E 003°11'3810.5
2015-Apr-24 23:33N 41°14' E 002°40'1010.2
2015-Apr-24 22:33N 41°06' E 002°32'1010.0
2015-Apr-24 21:33N 40°58' E 002°25'1010.1
2015-Apr-24 20:33N 40°49' E 002°18'1010.5
2015-Apr-24 19:33N 40°41' E 002°10'1110.6
2015-Apr-24 18:33N 40°32' E 002°02'1110.8
2015-Apr-24 17:33N 40°23' E 001°55'1110.8
2015-Apr-24 16:33N 40°13' E 001°48'1110.7
2015-Apr-24 15:33N 40°04' E 001°41'1110.6
2015-Apr-24 14:33N 39°54' E 001°35'1110.6
2015-Apr-24 13:33N 39°45' E 001°28'2510.8
2015-Apr-24 11:14N 39°23' E 001°13'6510.9
2015-Apr-24 05:17N 38°24' E 000°39'811.2
2015-Apr-24 04:33N 38°16' E 000°36'1111.1
2015-Apr-24 03:33N 38°06' E 000°31'2411.1
2015-Apr-24 01:21N 37°43' E 000°20'1011.0
2015-Apr-24 00:24N 37°33' E 000°15'1011.3
2015-Apr-23 23:33N 37°24' E 000°11'1111.0
2015-Apr-23 22:33N 37°14' E 000°06'1110.8
2015-Apr-23 21:33N 37°03' E 000°01'1110.7
2015-Apr-23 20:33N 36°54' W 000°03'  
2015-Apr-20 20:33N 35°46' W 000°37'11 9.8
2015-Apr-20 19:26N 35°56' W 000°33'10 9.2
2015-Apr-20 18:22N 36°05' W 000°28'5010.1
2015-Apr-20 13:26N 36°52' W 000°07'910.7
2015-Apr-20 12:33N 37°01' W 000°03'1110.6
2015-Apr-20 11:33N 37°11' E 000°02'1110.7
2015-Apr-20 10:33N 37°21' E 000°07'1010.4
2015-Apr-20 09:33N 37°30' E 000°11'2410.3
2015-Apr-20 07:13N 37°53' E 000°23'710.2
2015-Apr-20 06:33N 37°59' E 000°26'1110.3
2015-Apr-20 05:32N 38°09' E 000°31'1010.0
2015-Apr-20 04:30N 38°18' E 000°36'5510.4
2015-Apr-19 23:12N 39°10' E 000°59'7 9.9
2015-Apr-19 22:32N 39°16' E 001°02'10 9.9
2015-Apr-19 21:33N 39°25' E 001°07'20 9.8
2015-Apr-19 19:34N 39°42' E 001°19'10 9.7
2015-Apr-19 18:33N 39°51' E 001°25'10 9.7
2015-Apr-19 17:34N 39°60' E 001°31'10 9.9
2015-Apr-19 16:33N 40°09' E 001°37'1010.2
2015-Apr-19 15:33N 40°18' E 001°43'1010.2
2015-Apr-19 14:33N 40°26' E 001°50'1010.1
2015-Apr-19 13:33N 40°35' E 001°57'1010.0
2015-Apr-19 12:33N 40°43' E 002°04'1010.2
2015-Apr-19 11:33N 40°52' E 002°11'1010.4
2015-Apr-19 10:33N 41°01' E 002°18'1110.5
2015-Apr-19 09:33N 41°10' E 002°26'1110.7
2015-Apr-19 08:33N 41°17' E 002°36'1210.9
2015-Apr-19 07:30N 41°25' E 002°47'2310.5
2015-Apr-19 05:18N 41°41' E 003°10'7010.0
2015-Apr-18 22:21N 42°47' E 003°36'10 9.9
2015-Apr-18 21:20N 42°57' E 003°38'1110.2
2015-Apr-18 20:14N 43°08' E 003°41'910.4
2015-Apr-18 19:22N 43°17' E 003°43'7 7.7
2015-Apr-18 18:30N 43°24' E 003°42'0 0.3
2015-Apr-18 17:28N 43°24' E 003°42'0 0.0
2015-Apr-18 16:33N 43°24' E 003°42'0 0.0
2015-Apr-18 14:19N 43°24' E 003°42'0 0.0
2015-Apr-18 13:24N 43°24' E 003°42'0 0.0
2015-Apr-18 12:30N 43°24' E 003°42'0 0.0
2015-Apr-18 11:25N 43°24' E 003°42'0 0.6
2015-Apr-18 10:33N 43°24' E 003°43'11 8.7
2015-Apr-18 09:20N 43°14' E 003°48'1110.7
2015-Apr-18 08:20N 43°04' E 003°52'1011.2
2015-Apr-18 07:24N 42°54' E 003°56'1310.0
2015-Apr-18 06:06N 42°41' E 004°01'54 9.6
2015-Apr-18 00:26N 41°51' E 004°30'19 9.9
2015-Apr-17 22:33N 41°34' E 004°41'1110.4
2015-Apr-17 21:30N 41°25' E 004°49'9 9.8
2015-Apr-17 20:33N 41°18' E 004°56'1210.6
2015-Apr-17 19:23N 41°08' E 005°07'8 9.5
2015-Apr-17 18:32N 41°02' E 005°14'  

Dump ship's entire track history